Time;durP1;ratioP1;P1;durP2;ratioP2;P2;SDS_P1;SDS_P2;PMS_P1;PMS_P2;Temp;Humidity;BMP_temperature;BMP_pressure;BME280_temperature;BME280_humidity;BME280_pressure;Samples;Min_cycle;Max_cycle;Signal;HPM_P1;HPM_P2
2024/01/15 00:01:12;;;;;;;7.28;3.88;;;21.40;35.30;;;;;;4926943;29;20056;-55
2024/01/15 00:03:39;;;;;;;5.68;4.10;;;21.40;35.30;;;;;;4925008;29;20056;-54
2024/01/15 00:06:07;;;;;;;6.30;4.07;;;21.40;35.30;;;;;;4929219;29;20063;-54
2024/01/15 00:08:35;;;;;;;8.48;4.43;;;21.40;35.30;;;;;;4928889;29;20059;-53
2024/01/15 00:11:02;;;;;;;6.57;4.63;;;21.40;35.30;;;;;;4929320;29;20452;-51
2024/01/15 00:13:30;;;;;;;6.30;4.18;;;21.40;35.30;;;;;;4930066;29;20062;-54
2024/01/15 00:15:57;;;;;;;7.97;4.20;;;21.40;35.30;;;;;;4929529;29;20056;-54
2024/01/15 00:18:29;;;;;;;7.25;4.68;;;21.30;35.20;;;;;;4928318;29;20063;-55
2024/01/15 00:20:56;;;;;;;6.90;4.88;;;21.30;35.30;;;;;;4925905;29;20055;-54
2024/01/15 00:23:24;;;;;;;6.38;4.60;;;21.30;35.30;;;;;;4928826;29;20048;-54
2024/01/15 00:25:52;;;;;;;8.68;4.80;;;21.20;35.30;;;;;;4926158;29;20063;-54
2024/01/15 00:28:19;;;;;;;6.55;4.32;;;21.20;35.30;;;;;;4928415;29;20497;-53
2024/01/15 00:30:46;;;;;;;7.88;4.80;;;21.20;35.30;;;;;;4927734;29;20066;-52
2024/01/15 00:33:14;;;;;;;6.80;4.55;;;21.20;35.30;;;;;;4928565;29;20059;-54
2024/01/15 00:35:43;;;;;;;6.30;4.13;;;21.10;35.10;;;;;;4928770;29;20066;-53
2024/01/15 00:38:10;;;;;;;6.00;4.18;;;21.10;35.20;;;;;;4926222;29;20079;-52
2024/01/15 00:40:37;;;;;;;7.28;4.30;;;21.20;35.20;;;;;;4928302;29;20519;-53
2024/01/15 00:43:07;;;;;;;6.55;4.22;;;21.20;35.20;;;;;;4926932;29;20071;-53
2024/01/15 00:45:34;;;;;;;6.90;3.85;;;21.20;35.20;;;;;;4925066;29;20424;-55
2024/01/15 00:48:01;;;;;;;6.47;4.57;;;21.30;35.30;;;;;;4928366;29;20063;-51
2024/01/15 00:50:29;;;;;;;7.10;4.00;;;21.30;35.30;;;;;;4926530;29;20051;-54
2024/01/15 00:52:57;;;;;;;7.07;4.38;;;21.40;35.20;;;;;;4927946;29;20055;-55
2024/01/15 00:55:24;;;;;;;6.82;4.60;;;21.40;35.30;;;;;;4928895;29;20062;-56
2024/01/15 00:57:52;;;;;;;6.50;4.30;;;21.40;35.10;;;;;;4927089;29;20052;-56
2024/01/15 01:00:19;;;;;;;5.75;4.15;;;21.50;35.00;;;;;;4924609;29;20047;-56
2024/01/15 01:02:46;;;;;;;8.00;4.47;;;21.50;34.90;;;;;;4926982;29;20051;-56
2024/01/15 01:05:13;;;;;;;6.97;4.47;;;21.60;35.30;;;;;;4927636;29;20051;-55
2024/01/15 01:07:41;;;;;;;6.03;3.83;;;21.60;34.80;;;;;;4927555;29;20429;-54
2024/01/15 01:10:10;;;;;;;7.10;4.57;;;21.70;34.70;;;;;;4928711;29;20055;-52
2024/01/15 01:12:37;;;;;;;6.82;4.32;;;21.70;34.70;;;;;;4924346;29;20067;-54
2024/01/15 01:15:06;;;;;;;5.53;3.97;;;21.80;34.70;;;;;;4924145;29;20055;-56
2024/01/15 01:17:33;;;;;;;7.18;4.63;;;21.80;34.70;;;;;;4925340;29;20047;-57
2024/01/15 01:20:03;;;;;;;5.65;3.70;;;21.80;34.70;;;;;;4929650;29;20050;-56
2024/01/15 01:22:31;;;;;;;7.28;4.00;;;21.80;34.60;;;;;;4927503;29;20539;-55
2024/01/15 01:24:58;;;;;;;5.80;4.05;;;21.80;34.70;;;;;;4925509;29;20044;-51
2024/01/15 01:27:27;;;;;;;7.93;4.18;;;21.80;34.60;;;;;;4924409;29;20135;-51
2024/01/15 01:29:54;;;;;;;7.68;4.50;;;21.80;34.60;;;;;;4921419;29;20429;-55
2024/01/15 01:32:21;;;;;;;7.18;4.22;;;21.80;34.60;;;;;;4923440;29;20063;-52
2024/01/15 01:34:48;;;;;;;7.05;4.55;;;21.80;34.60;;;;;;4924901;29;20686;-56
2024/01/15 01:37:16;;;;;;;7.35;4.18;;;21.80;34.60;;;;;;4926643;29;20051;-55
2024/01/15 01:39:44;;;;;;;6.03;3.75;;;21.80;34.60;;;;;;4925106;29;20061;-54
2024/01/15 01:42:12;;;;;;;8.35;4.70;;;21.70;34.60;;;;;;4925659;29;20056;-56
2024/01/15 01:44:40;;;;;;;7.43;4.57;;;21.70;34.60;;;;;;4926758;29;20059;-53
2024/01/15 01:47:08;;;;;;;8.68;4.60;;;21.70;34.70;;;;;;4926498;29;20059;-55
2024/01/15 01:49:36;;;;;;;6.60;4.28;;;21.70;35.30;;;;;;4927086;29;20484;-55
2024/01/15 01:52:05;;;;;;;6.38;4.32;;;21.70;34.70;;;;;;4924834;29;20566;-53
2024/01/15 01:54:33;;;;;;;8.85;4.97;;;21.60;34.70;;;;;;4925303;29;20048;-54
2024/01/15 01:57:03;;;;;;;8.05;4.50;;;21.60;34.70;;;;;;4926382;29;20060;-56
2024/01/15 01:59:32;;;;;;;6.85;3.92;;;21.50;34.70;;;;;;4926889;29;20147;-57
2024/01/15 02:02:03;;;;;;;7.35;4.65;;;21.50;34.70;;;;;;4926890;29;20052;-55
2024/01/15 02:04:32;;;;;;;7.05;4.70;;;21.50;34.80;;;;;;4925575;29;20051;-58
2024/01/15 02:07:00;;;;;;;7.45;4.53;;;21.50;34.80;;;;;;4925976;29;20070;-58
2024/01/15 02:09:27;;;;;;;9.38;4.57;;;21.40;34.90;;;;;;4925658;29;20043;-58
2024/01/15 02:11:55;;;;;;;8.85;4.95;;;21.40;34.90;;;;;;4920967;29;20052;-59
2024/01/15 02:14:22;;;;;;;7.40;5.05;;;21.40;34.90;;;;;;4927020;29;20064;-57
2024/01/15 02:16:50;;;;;;;6.60;4.65;;;21.30;34.90;;;;;;4928006;29;20063;-58
2024/01/15 02:19:19;;;;;;;6.35;4.75;;;21.30;34.90;;;;;;4924810;29;20067;-58
2024/01/15 02:21:46;;;;;;;8.38;5.20;;;21.30;34.90;;;;;;4921164;29;20489;-58
2024/01/15 02:24:15;;;;;;;7.55;4.78;;;21.20;34.90;;;;;;4921387;29;20063;-58
2024/01/15 02:26:42;;;;;;;6.68;4.30;;;21.20;34.90;;;;;;4928861;29;20066;-58
2024/01/15 02:29:10;;;;;;;7.97;4.78;;;21.20;34.90;;;;;;4925714;29;20056;-58
2024/01/15 02:31:37;;;;;;;6.97;4.60;;;21.20;35.00;;;;;;4930278;29;20051;-57
2024/01/15 02:34:05;;;;;;;7.15;4.35;;;21.20;35.00;;;;;;4929278;29;20062;-58
2024/01/15 02:36:32;;;;;;;6.82;4.60;;;21.20;34.90;;;;;;4926952;29;20418;-58
2024/01/15 02:38:59;;;;;;;6.72;4.82;;;21.20;34.90;;;;;;4927397;29;20056;-59
2024/01/15 02:41:28;;;;;;;5.90;4.38;;;21.30;34.80;;;;;;4930695;29;20060;-57
2024/01/15 02:43:55;;;;;;;6.78;4.15;;;21.30;34.80;;;;;;4931152;29;20055;-58
2024/01/15 02:46:22;;;;;;;6.75;4.53;;;21.40;34.70;;;;;;4930434;29;20075;-58
2024/01/15 02:48:49;;;;;;;7.50;4.45;;;21.40;34.70;;;;;;4928908;29;20508;-58
2024/01/15 02:51:17;;;;;;;7.93;4.65;;;21.50;34.70;;;;;;4926673;29;20056;-57
2024/01/15 02:53:44;;;;;;;6.43;4.22;;;21.50;35.00;;;;;;4931569;29;20070;-59
2024/01/15 02:56:11;;;;;;;6.28;4.22;;;21.60;34.40;;;;;;4930544;29;20055;-58
2024/01/15 02:58:40;;;;;;;6.18;4.30;;;21.70;34.40;;;;;;4929401;29;20055;-58
2024/01/15 03:01:07;;;;;;;6.55;4.20;;;21.80;34.40;;;;;;4927259;29;20508;-58
2024/01/15 03:03:34;;;;;;;6.32;4.40;;;21.80;34.30;;;;;;4929118;29;20052;-59
2024/01/15 03:06:02;;;;;;;6.78;4.57;;;21.80;34.20;;;;;;4930836;29;20420;-59
2024/01/15 03:08:30;;;;;;;7.00;4.47;;;21.90;34.30;;;;;;4928354;29;20060;-58
2024/01/15 03:10:57;;;;;;;6.63;4.43;;;21.90;34.10;;;;;;4932250;29;20058;-56
2024/01/15 03:13:27;;;;;;;6.40;4.40;;;22.00;34.10;;;;;;4930299;29;20074;-59
2024/01/15 03:15:56;;;;;;;5.85;4.25;;;21.90;34.00;;;;;;4928823;29;20047;-58
2024/01/15 03:18:23;;;;;;;6.95;4.68;;;21.90;34.00;;;;;;4926905;29;20063;-59
2024/01/15 03:20:50;;;;;;;7.40;4.78;;;22.00;34.00;;;;;;4928419;29;20063;-59
2024/01/15 03:23:18;;;;;;;6.55;4.70;;;22.00;34.00;;;;;;4929333;29;20063;-58
2024/01/15 03:25:45;;;;;;;6.70;4.72;;;21.90;33.90;;;;;;4928901;29;20272;-58
2024/01/15 03:28:13;;;;;;;6.97;4.53;;;21.90;33.80;;;;;;4930207;29;20063;-58
2024/01/15 03:30:40;;;;;;;7.97;5.65;;;21.90;33.80;;;;;;4927370;29;20477;-57
2024/01/15 03:33:08;;;;;;;6.43;4.70;;;21.90;33.70;;;;;;4927215;29;20067;-57
2024/01/15 03:35:35;;;;;;;7.00;4.70;;;21.90;33.70;;;;;;4928379;29;20055;-57
2024/01/15 03:38:02;;;;;;;7.68;5.20;;;21.80;33.60;;;;;;4930649;29;20055;-58
2024/01/15 03:40:29;;;;;;;6.95;4.75;;;21.80;33.70;;;;;;4925548;29;20062;-58
2024/01/15 03:42:56;;;;;;;7.00;5.05;;;21.80;33.70;;;;;;4928229;29;20044;-58
2024/01/15 03:45:23;;;;;;;8.07;5.40;;;21.80;33.80;;;;;;4928295;29;20059;-58
2024/01/15 03:47:51;;;;;;;7.68;5.25;;;21.70;33.70;;;;;;4926733;29;20518;-57
2024/01/15 03:50:19;;;;;;;8.43;5.25;;;21.70;33.70;;;;;;4923228;29;20047;-58
2024/01/15 03:52:46;;;;;;;13.25;6.00;;;21.70;33.70;;;;;;4928396;29;20047;-58
2024/01/15 03:55:14;;;;;;;13.52;6.43;;;21.60;33.30;;;;;;4928452;29;20067;-58
2024/01/15 03:57:41;;;;;;;19.25;6.07;;;21.60;32.90;;;;;;4922853;29;20404;-65
2024/01/15 04:00:09;;;;;;;32.67;6.15;;;21.50;33.00;;;;;;4926015;29;20059;-64
2024/01/15 04:02:36;;;;;;;8.63;5.68;;;21.50;33.20;;;;;;4928543;29;20070;-64
2024/01/15 04:05:04;;;;;;;11.75;5.82;;;21.50;33.40;;;;;;4932030;29;20051;-64
2024/01/15 04:07:33;;;;;;;15.35;5.85;;;21.50;33.70;;;;;;4925178;29;20523;-65
2024/01/15 04:10:00;;;;;;;11.68;5.88;;;21.40;33.70;;;;;;4923288;29;20058;-63
2024/01/15 04:12:27;;;;;;;13.57;5.78;;;21.40;33.70;;;;;;4918491;29;20059;-61
2024/01/15 04:14:55;;;;;;;17.17;5.50;;;21.40;33.80;;;;;;4925763;29;20048;-63
2024/01/15 04:17:22;;;;;;;8.93;4.95;;;21.40;33.80;;;;;;4928597;29;20438;-61
2024/01/15 04:19:49;;;;;;;8.18;4.65;;;21.40;33.70;;;;;;4928380;29;20066;-62
2024/01/15 04:22:17;;;;;;;7.70;5.00;;;21.50;33.80;;;;;;4925880;29;20056;-61
2024/01/15 04:24:45;;;;;;;6.38;4.25;;;21.50;33.80;;;;;;4924074;29;20508;-61
2024/01/15 04:27:12;;;;;;;6.25;4.55;;;21.50;33.70;;;;;;4926218;29;20047;-61
2024/01/15 04:29:40;;;;;;;6.82;4.75;;;21.60;33.70;;;;;;4929234;29;20516;-59
2024/01/15 04:32:07;;;;;;;7.57;4.72;;;21.60;33.60;;;;;;4930454;29;20056;-61
2024/01/15 04:34:34;;;;;;;5.63;3.92;;;21.60;33.50;;;;;;4928973;29;20437;-61
2024/01/15 04:37:02;;;;;;;6.22;4.43;;;21.70;33.50;;;;;;4927298;29;20059;-60
2024/01/15 04:39:30;;;;;;;6.28;4.72;;;21.70;33.40;;;;;;4938222;28;20047;-61
2024/01/15 04:41:59;;;;;;;7.22;4.32;;;21.80;33.40;;;;;;4944879;28;20051;-60
2024/01/15 04:44:26;;;;;;;6.85;4.55;;;21.80;33.30;;;;;;4932009;28;20526;-61
2024/01/15 04:46:53;;;;;;;7.70;4.32;;;21.80;33.20;;;;;;4945643;28;20404;-60
2024/01/15 04:49:20;;;;;;;6.95;4.70;;;21.80;33.10;;;;;;4963961;28;20058;-62
2024/01/15 04:51:48;;;;;;;6.63;4.22;;;21.80;33.10;;;;;;4962031;28;20070;-60
2024/01/15 04:54:17;;;;;;;7.07;4.68;;;21.80;33.10;;;;;;4964323;28;20058;-61
2024/01/15 04:56:44;;;;;;;6.47;4.05;;;21.80;33.10;;;;;;4964586;28;20047;-62
2024/01/15 04:59:14;;;;;;;5.95;4.20;;;21.80;33.10;;;;;;4968377;28;20510;-61
2024/01/15 05:01:41;;;;;;;6.90;4.53;;;21.80;33.10;;;;;;4965904;28;20078;-60
2024/01/15 05:04:08;;;;;;;5.97;4.28;;;21.80;33.10;;;;;;4965229;28;20059;-60
2024/01/15 05:09:58;;;;;;;7.55;4.07;;;21.70;33.10;;;;;;4967440;28;20038;-59
2024/01/15 05:12:25;;;;;;;6.00;4.28;;;21.70;33.20;;;;;;4967753;28;20054;-61
2024/01/15 05:14:54;;;;;;;5.47;3.97;;;21.70;33.10;;;;;;4966451;28;20051;-62
2024/01/15 05:17:21;;;;;;;8.80;4.28;;;21.60;33.10;;;;;;4965582;28;20415;-61
2024/01/15 05:19:48;;;;;;;8.52;4.40;;;21.60;33.10;;;;;;4961619;28;20062;-62
2024/01/15 05:22:16;;;;;;;9.10;3.95;;;21.60;33.10;;;;;;4963645;28;20051;-62
2024/01/15 05:24:43;;;;;;;7.35;3.92;;;21.70;33.10;;;;;;4961454;28;20059;-62
2024/01/15 05:27:10;;;;;;;9.68;4.32;;;21.70;33.10;;;;;;4963691;28;20055;-61
2024/01/15 05:29:37;;;;;;;7.55;5.32;;;21.70;33.10;;;;;;4968333;28;20054;-63
2024/01/15 05:32:06;;;;;;;10.63;6.45;;;21.80;32.90;;;;;;4964049;28;20054;-62
2024/01/15 05:34:33;;;;;;;12.40;6.30;;;21.80;32.60;;;;;;4965263;28;20057;-65
2024/01/15 05:37:00;;;;;;;8.40;5.70;;;21.80;32.60;;;;;;4964039;28;20051;-66
2024/01/15 05:39:28;;;;;;;8.98;5.65;;;21.90;32.60;;;;;;4963397;28;20435;-63
2024/01/15 05:41:55;;;;;;;8.10;5.15;;;21.90;32.50;;;;;;4965777;28;20051;-61
2024/01/15 05:44:22;;;;;;;7.88;4.63;;;21.90;32.40;;;;;;4962593;28;20066;-62
2024/01/15 05:46:49;;;;;;;6.43;4.22;;;22.00;32.50;;;;;;4967789;28;20410;-61
2024/01/15 05:49:17;;;;;;;11.18;4.75;;;22.00;32.50;;;;;;4962124;28;20058;-64
2024/01/15 05:51:45;;;;;;;7.63;4.75;;;22.10;32.40;;;;;;4964480;28;20180;-65
2024/01/15 05:54:12;;;;;;;7.63;4.10;;;22.10;32.40;;;;;;4963278;28;20066;-61
2024/01/15 05:56:39;;;;;;;5.57;4.20;;;22.10;32.30;;;;;;4963226;28;21154;-65
2024/01/15 05:59:06;;;;;;;4.90;4.00;;;22.20;32.30;;;;;;4965463;28;20506;-63
2024/01/15 06:01:33;;;;;;;6.07;3.67;;;22.20;32.30;;;;;;4966389;28;20050;-64
2024/01/15 06:04:00;;;;;;;12.82;7.32;;;22.20;32.30;;;;;;4970417;28;20061;-65
2024/01/15 06:06:29;;;;;;;25.23;12.40;;;22.30;32.10;;;;;;4967640;28;20062;-61
2024/01/15 06:08:56;;;;;;;19.10;10.95;;;22.30;32.10;;;;;;4967262;28;20343;-64
2024/01/15 06:11:23;;;;;;;17.85;9.50;;;22.30;32.10;;;;;;4963492;28;20058;-64
2024/01/15 06:13:51;;;;;;;11.82;8.32;;;22.30;32.00;;;;;;4965905;28;20047;-65
2024/01/15 06:16:20;;;;;;;13.45;7.43;;;22.30;32.00;;;;;;4967439;28;20055;-64
2024/01/15 06:18:47;;;;;;;11.68;6.93;;;22.30;32.00;;;;;;4965680;28;20092;-63
2024/01/15 06:21:14;;;;;;;9.38;6.72;;;22.30;31.90;;;;;;4967067;28;20112;-64
2024/01/15 06:23:44;;;;;;;8.88;6.20;;;22.30;32.10;;;;;;4968109;28;20050;-61
2024/01/15 06:26:12;;;;;;;19.95;6.32;;;22.30;32.00;;;;;;4967326;28;20050;-62
2024/01/15 06:28:40;;;;;;;10.82;5.78;;;22.30;32.10;;;;;;4969294;28;20059;-62
2024/01/15 06:31:07;;;;;;;8.85;5.57;;;22.20;32.00;;;;;;4967524;28;20051;-61
2024/01/15 06:33:34;;;;;;;8.57;5.38;;;22.20;32.00;;;;;;4965552;28;20065;-61
2024/01/15 06:36:01;;;;;;;11.70;5.78;;;22.20;32.00;;;;;;4970332;28;20062;-61
2024/01/15 06:38:29;;;;;;;7.55;4.53;;;22.20;32.10;;;;;;4967504;28;20066;-60
2024/01/15 06:40:57;;;;;;;24.02;13.40;;;22.10;32.10;;;;;;4965820;28;20059;-60
2024/01/15 06:43:24;;;;;;;16.85;9.80;;;22.10;32.00;;;;;;4969592;28;20054;-62
2024/01/15 06:45:52;;;;;;;16.33;7.50;;;22.00;31.90;;;;;;4965527;28;20054;-62
2024/01/15 06:48:19;;;;;;;14.80;6.90;;;22.00;32.00;;;;;;4964548;28;20050;-62
2024/01/15 06:50:46;;;;;;;17.92;7.57;;;21.90;32.00;;;;;;4968908;28;20050;-62
2024/01/15 06:53:13;;;;;;;13.80;6.75;;;21.90;32.10;;;;;;4963124;28;20066;-63
2024/01/15 06:55:40;;;;;;;12.63;6.30;;;21.80;32.10;;;;;;4968672;28;20050;-63
2024/01/15 06:58:09;;;;;;;11.15;6.15;;;21.80;32.10;;;;;;4966094;28;20051;-64
2024/01/15 07:00:37;;;;;;;8.00;5.50;;;21.70;32.20;;;;;;4968130;28;20055;-63
2024/01/15 07:03:05;;;;;;;8.75;5.47;;;21.70;32.30;;;;;;4964614;28;20523;-62
2024/01/15 07:05:32;;;;;;;7.47;5.35;;;21.60;32.20;;;;;;4966882;28;20051;-62
2024/01/15 07:07:59;;;;;;;13.05;5.43;;;21.60;32.30;;;;;;4967177;28;20051;-63
2024/01/15 07:10:27;;;;;;;8.52;5.13;;;21.60;32.30;;;;;;4968818;28;20058;-62
2024/01/15 07:12:54;;;;;;;8.88;5.63;;;21.60;32.30;;;;;;4966561;28;20058;-63
2024/01/15 07:15:23;;;;;;;9.23;5.03;;;21.50;32.30;;;;;;4967920;28;20066;-62
2024/01/15 07:17:50;;;;;;;9.35;4.30;;;21.50;32.30;;;;;;4965693;28;20046;-62
2024/01/15 07:20:19;;;;;;;8.18;4.70;;;21.60;32.30;;;;;;4966089;28;20054;-62
2024/01/15 07:22:46;;;;;;;10.52;5.90;;;21.60;32.30;;;;;;4966687;28;20055;-62
2024/01/15 07:25:13;;;;;;;9.77;5.88;;;21.60;31.90;;;;;;4964483;28;20293;-62
2024/01/15 07:27:44;;;;;;;10.40;5.40;;;21.70;31.70;;;;;;4966523;28;21761;-62
2024/01/15 07:30:12;;;;;;;12.55;4.90;;;21.70;31.70;;;;;;4966994;28;20047;-62
2024/01/15 07:32:41;;;;;;;9.52;4.75;;;21.70;31.80;;;;;;4967596;28;20070;-62
2024/01/15 07:35:09;;;;;;;18.17;4.13;;;21.70;31.90;;;;;;4962335;28;20047;-61
2024/01/15 07:37:36;;;;;;;5.90;3.90;;;21.70;31.90;;;;;;4969505;28;20571;-61
2024/01/15 07:40:06;;;;;;;19.20;5.03;;;21.80;32.00;;;;;;4969394;28;20051;-61
2024/01/15 07:42:34;;;;;;;8.27;4.95;;;21.70;31.70;;;;;;4966180;28;20061;-62
2024/01/15 07:45:01;;;;;;;12.55;4.75;;;21.70;31.30;;;;;;4967309;28;20062;-61
2024/01/15 07:47:28;;;;;;;9.00;4.75;;;21.70;31.20;;;;;;4965384;28;20054;-61
2024/01/15 07:49:57;;;;;;;11.40;4.75;;;21.70;31.60;;;;;;4965124;28;20055;-59
2024/01/15 07:52:24;;;;;;;8.35;4.97;;;21.80;31.50;;;;;;4963631;28;20058;-58
2024/01/15 07:54:51;;;;;;;14.25;5.30;;;21.80;31.00;;;;;;4963703;28;20381;-58
2024/01/15 07:57:18;;;;;;;8.00;4.72;;;21.80;30.50;;;;;;4967314;28;20043;-58
2024/01/15 07:59:45;;;;;;;12.90;5.75;;;21.80;30.20;;;;;;4963088;28;20066;-57
2024/01/15 08:02:12;;;;;;;10.73;5.43;;;21.80;30.00;;;;;;4966178;28;20531;-59
2024/01/15 08:04:40;;;;;;;10.13;5.32;;;21.80;29.90;;;;;;4964212;28;20057;-59
2024/01/15 08:07:08;;;;;;;16.48;5.30;;;21.70;29.70;;;;;;4966498;28;20062;-59
2024/01/15 08:09:35;;;;;;;8.82;4.47;;;21.70;29.80;;;;;;4961901;28;20051;-58
2024/01/15 08:12:05;;;;;;;6.88;4.03;;;21.70;30.00;;;;;;4967181;28;20051;-59
2024/01/15 08:14:33;;;;;;;8.73;3.45;;;21.70;30.10;;;;;;4967028;28;20058;-61
2024/01/15 08:17:01;;;;;;;9.35;4.22;;;21.60;30.20;;;;;;4965012;28;20054;-61
2024/01/15 08:19:28;;;;;;;8.20;4.55;;;21.60;30.40;;;;;;4967160;28;20054;-60
2024/01/15 08:21:55;;;;;;;6.10;4.20;;;21.60;30.60;;;;;;4967529;28;20051;-60
2024/01/15 08:24:23;;;;;;;9.85;4.07;;;21.60;30.70;;;;;;4962458;28;20054;-61
2024/01/15 08:26:51;;;;;;;8.77;3.83;;;21.50;30.80;;;;;;4964716;28;20495;-61
2024/01/15 08:29:20;;;;;;;10.63;4.20;;;21.50;30.90;;;;;;4963192;28;20546;-60
2024/01/15 08:31:48;;;;;;;12.48;3.55;;;21.50;31.00;;;;;;4963340;28;20059;-59
2024/01/15 08:34:15;;;;;;;14.38;3.40;;;21.50;31.10;;;;;;4966899;28;20537;-62
2024/01/15 08:36:42;;;;;;;9.80;3.97;;;21.40;31.00;;;;;;4964932;28;20051;-61
2024/01/15 08:39:09;;;;;;;8.43;3.85;;;21.40;31.10;;;;;;4965132;28;20525;-62
2024/01/15 08:41:38;;;;;;;18.13;6.95;;;21.40;31.20;;;;;;4965177;28;20057;-61
2024/01/15 08:44:05;;;;;;;15.55;4.85;;;21.40;31.50;;;;;;4966824;28;20063;-63
2024/01/15 08:46:32;;;;;;;15.50;4.88;;;21.30;31.30;;;;;;4961248;28;20051;-62
2024/01/15 08:49:00;;;;;;;14.35;4.78;;;21.30;31.40;;;;;;4966826;28;21633;-62
2024/01/15 08:51:27;;;;;;;13.38;4.65;;;21.30;31.40;;;;;;4964678;28;20050;-61
2024/01/15 08:53:55;;;;;;;11.75;4.45;;;21.30;31.50;;;;;;4966220;28;20522;-61
2024/01/15 08:56:22;;;;;;;7.78;3.80;;;21.30;31.50;;;;;;4967258;28;20055;-60
2024/01/15 08:58:50;;;;;;;7.65;3.95;;;21.30;31.50;;;;;;4967708;28;20047;-60
2024/01/15 09:01:18;;;;;;;13.23;4.30;;;21.40;31.60;;;;;;4966103;28;20050;-60
2024/01/15 09:03:46;;;;;;;16.23;3.97;;;21.40;31.60;;;;;;4965375;28;20051;-60
2024/01/15 09:06:13;;;;;;;7.50;3.67;;;21.40;31.60;;;;;;4965766;28;20058;-61
2024/01/15 09:08:40;;;;;;;7.97;3.78;;;21.50;31.60;;;;;;4965683;28;20062;-61
2024/01/15 09:11:07;;;;;;;6.82;3.50;;;21.50;31.50;;;;;;4961573;28;20055;-61
2024/01/15 09:13:34;;;;;;;8.38;4.20;;;21.60;31.60;;;;;;4963702;28;20058;-61
2024/01/15 09:16:04;;;;;;;9.48;3.90;;;21.60;31.50;;;;;;4963434;28;20047;-60
2024/01/15 09:18:31;;;;;;;6.43;3.85;;;21.60;31.40;;;;;;4964191;28;20051;-61
2024/01/15 09:20:59;;;;;;;6.20;3.67;;;21.60;31.40;;;;;;4965244;28;20050;-60
2024/01/15 09:23:26;;;;;;;18.25;4.38;;;21.70;31.40;;;;;;4963764;28;20054;-59
2024/01/15 09:25:53;;;;;;;29.73;15.85;;;21.70;31.40;;;;;;4965232;28;20055;-58
2024/01/15 09:28:20;;;;;;;14.18;8.27;;;21.80;31.30;;;;;;4964276;28;20046;-62
2024/01/15 09:30:47;;;;;;;10.18;5.88;;;21.80;31.30;;;;;;4965226;28;20058;-60
2024/01/15 09:33:16;;;;;;;13.63;5.70;;;21.90;31.30;;;;;;4966213;28;20058;-59
2024/01/15 09:35:43;;;;;;;11.90;5.50;;;21.90;31.20;;;;;;4962881;28;20054;-60
2024/01/15 09:38:10;;;;;;;9.98;5.72;;;21.90;31.10;;;;;;4961760;28;20058;-61
2024/01/15 09:40:39;;;;;;;11.73;6.00;;;22.00;31.10;;;;;;4967062;28;20062;-61
2024/01/15 09:43:07;;;;;;;9.60;5.18;;;22.00;31.00;;;;;;4963585;28;20595;-61
2024/01/15 09:45:34;;;;;;;10.93;5.30;;;22.00;31.00;;;;;;4967527;28;20054;-61
2024/01/15 09:48:01;;;;;;;7.53;4.65;;;22.00;30.90;;;;;;4965925;28;20487;-62
2024/01/15 09:50:30;;;;;;;8.63;5.00;;;22.00;30.90;;;;;;4963899;28;20061;-61
2024/01/15 09:52:58;;;;;;;7.70;4.75;;;22.00;30.90;;;;;;4964527;28;20500;-60
2024/01/15 09:55:25;;;;;;;9.35;4.85;;;22.00;30.80;;;;;;4964179;28;20061;-62
2024/01/15 09:57:55;;;;;;;8.30;4.60;;;22.00;30.80;;;;;;4963755;28;20074;-62
2024/01/15 10:00:24;;;;;;;11.80;4.55;;;21.90;30.70;;;;;;4966247;28;20047;-62
2024/01/15 10:02:51;;;;;;;22.13;10.13;;;21.90;30.80;;;;;;4963702;28;20063;-63
2024/01/15 10:05:18;;;;;;;20.73;10.75;;;21.90;30.70;;;;;;4963794;28;20806;-61
2024/01/15 10:07:48;;;;;;;18.83;9.57;;;21.90;30.70;;;;;;4966619;28;20055;-62
2024/01/15 10:10:17;;;;;;;21.38;9.55;;;21.80;30.70;;;;;;4964098;28;20415;-61
2024/01/15 10:12:44;;;;;;;20.65;9.65;;;21.80;30.70;;;;;;4964413;28;20050;-61
2024/01/15 10:15:12;;;;;;;15.35;8.48;;;21.80;30.80;;;;;;4961220;28;20065;-60
2024/01/15 10:17:39;;;;;;;16.95;8.70;;;21.70;30.80;;;;;;4965360;28;20058;-60
2024/01/15 10:20:10;;;;;;;15.65;7.50;;;21.70;30.90;;;;;;4964680;28;20055;-59
2024/01/15 10:22:39;;;;;;;13.43;6.28;;;21.70;30.90;;;;;;4961644;28;20496;-60
2024/01/15 10:25:11;;;;;;;20.90;6.25;;;21.60;30.90;;;;;;4964871;28;20066;-59
2024/01/15 10:27:41;;;;;;;12.93;6.22;;;21.60;31.50;;;;;;4968481;28;20063;-60
2024/01/15 10:30:09;;;;;;;9.10;4.72;;;21.60;31.10;;;;;;4968922;28;20051;-61
2024/01/15 10:32:36;;;;;;;12.05;6.00;;;21.50;31.10;;;;;;4969288;28;20058;-60
2024/01/15 10:35:05;;;;;;;15.77;5.75;;;21.50;31.10;;;;;;4963889;28;20050;-60
2024/01/15 10:37:34;;;;;;;10.40;5.10;;;21.50;31.10;;;;;;4970683;28;20059;-61
2024/01/15 10:40:04;;;;;;;10.27;5.03;;;21.50;31.20;;;;;;4968201;28;20051;-60
2024/01/15 10:42:33;;;;;;;6.95;4.03;;;21.50;31.20;;;;;;4970582;28;20061;-60
2024/01/15 10:45:02;;;;;;;10.27;4.40;;;21.50;31.20;;;;;;4966948;28;20067;-61
2024/01/15 10:47:30;;;;;;;5.75;3.50;;;21.60;31.30;;;;;;4968110;28;20054;-60
2024/01/15 10:49:58;;;;;;;8.02;3.55;;;21.60;31.20;;;;;;4972773;28;20070;-60
2024/01/15 10:52:26;;;;;;;5.93;3.45;;;21.60;31.20;;;;;;4969382;28;20059;-61
2024/01/15 10:54:54;;;;;;;6.40;3.53;;;21.70;31.20;;;;;;4970740;28;20055;-61
2024/01/15 10:57:22;;;;;;;7.07;3.05;;;21.70;31.10;;;;;;4974152;28;20073;-60
2024/01/15 10:59:51;;;;;;;7.57;3.33;;;21.70;31.10;;;;;;4969527;28;20061;-60
2024/01/15 11:02:18;;;;;;;6.20;3.40;;;21.70;31.60;;;;;;4972513;28;20059;-60
2024/01/15 11:05:04;;;;;;;5.65;2.72;;;21.80;31.10;;;;;;4968123;28;20430;-60
2024/01/15 11:07:32;;;;;;;3.45;2.35;;;21.80;31.10;;;;;;4970306;28;20054;-59
2024/01/15 11:09:59;;;;;;;5.65;3.00;;;21.90;31.10;;;;;;4971993;28;20051;-59
2024/01/15 11:12:27;;;;;;;4.15;2.35;;;21.90;31.00;;;;;;4972828;28;20062;-60
2024/01/15 11:15:03;;;;;;;4.50;2.75;;;21.90;30.90;;;;;;4971353;28;20053;-59
2024/01/15 11:18:01;;;;;;;4.55;2.50;;;21.90;30.80;;;;;;4970279;28;20059;-59
2024/01/15 11:20:28;;;;;;;3.35;2.08;;;21.90;30.80;;;;;;4966957;28;20487;-61
2024/01/15 11:22:57;;;;;;;3.28;2.17;;;21.90;30.70;;;;;;4968649;28;20046;-60
2024/01/15 11:25:24;;;;;;;3.85;2.15;;;21.90;30.70;;;;;;4972057;28;20428;-60
2024/01/15 11:27:54;;;;;;;2.45;1.75;;;21.90;30.70;;;;;;4972364;28;20480;-60
2024/01/15 11:30:26;;;;;;;5.15;1.80;;;21.90;30.70;;;;;;4971871;28;20056;-61
2024/01/15 11:32:53;;;;;;;3.17;1.90;;;21.90;30.60;;;;;;4969485;28;20522;-60
2024/01/15 11:35:20;;;;;;;2.85;1.95;;;21.90;30.60;;;;;;4966909;28;20051;-60
2024/01/15 11:38:01;;;;;;;2.30;1.60;;;21.90;30.70;;;;;;4965530;28;20059;-62
2024/01/15 11:40:39;;;;;;;2.97;1.60;;;21.80;30.70;;;;;;4967787;28;20408;-62
2024/01/15 11:43:09;;;;;;;2.45;1.67;;;21.80;30.60;;;;;;4970321;28;20055;-61
2024/01/15 11:45:39;;;;;;;2.42;1.50;;;21.80;30.70;;;;;;4964004;28;20066;-60
2024/01/15 11:48:13;;;;;;;2.05;1.45;;;21.70;30.70;;;;;;4971604;28;20549;-61
2024/01/15 11:50:42;;;;;;;4.68;1.55;;;21.70;30.70;;;;;;4971541;28;20081;-62
2024/01/15 11:53:28;;;;;;;2.03;1.42;;;21.70;30.80;;;;;;4967937;28;20736;-62
2024/01/15 11:55:59;;;;;;;3.47;1.52;;;21.60;30.80;;;;;;4964257;28;20101;-62
2024/01/15 11:58:27;;;;;;;1.73;1.20;;;21.60;30.80;;;;;;4967812;28;20534;-63
2024/01/15 12:00:55;;;;;;;3.53;1.40;;;21.50;30.80;;;;;;4971434;28;20058;-63
2024/01/15 12:03:23;;;;;;;2.78;1.42;;;21.50;30.80;;;;;;4963277;28;20448;-62
2024/01/15 12:05:51;;;;;;;1.45;1.13;;;21.50;30.90;;;;;;4964995;28;20058;-62
2024/01/15 12:08:22;;;;;;;2.83;1.58;;;21.50;31.00;;;;;;4962958;28;20062;-61
2024/01/15 12:10:49;;;;;;;2.40;1.30;;;21.40;31.00;;;;;;4970329;28;20401;-60
2024/01/15 12:13:17;;;;;;;1.85;1.30;;;21.40;31.00;;;;;;4969726;28;20523;-61
2024/01/15 12:15:46;;;;;;;1.15;0.95;;;21.50;31.10;;;;;;4971945;28;20062;-60
2024/01/15 12:18:16;;;;;;;1.67;1.27;;;21.50;31.10;;;;;;4966072;28;20062;-61
2024/01/15 12:20:46;;;;;;;3.08;1.55;;;21.50;31.00;;;;;;4968243;28;20046;-61
2024/01/15 12:23:14;;;;;;;1.60;1.20;;;21.60;31.10;;;;;;4967448;28;20476;-61
2024/01/15 12:25:41;;;;;;;1.70;1.20;;;21.60;31.00;;;;;;4962818;28;20051;-60
2024/01/15 12:28:10;;;;;;;1.90;1.30;;;21.70;31.00;;;;;;4967822;28;20400;-58
2024/01/15 12:30:37;;;;;;;1.92;1.30;;;21.70;30.90;;;;;;4966215;28;20054;-60
2024/01/15 12:33:06;;;;;;;2.53;1.25;;;21.70;30.90;;;;;;4971296;28;20435;-61
2024/01/15 12:35:35;;;;;;;1.90;1.10;;;21.80;30.90;;;;;;4970758;28;20062;-61
2024/01/15 12:38:03;;;;;;;2.25;1.50;;;21.90;30.90;;;;;;4959656;28;20050;-61
2024/01/15 12:40:31;;;;;;;2.33;1.30;;;21.90;30.80;;;;;;4969052;28;20046;-61
2024/01/15 12:42:58;;;;;;;2.45;1.63;;;22.00;31.30;;;;;;4969421;28;20492;-60
2024/01/15 12:45:26;;;;;;;2.08;1.30;;;22.10;30.80;;;;;;4966359;28;20058;-61
2024/01/15 12:47:55;;;;;;;2.45;1.50;;;22.10;30.70;;;;;;4965900;28;20066;-60
2024/01/15 12:50:25;;;;;;;2.65;1.52;;;22.20;30.60;;;;;;4970348;28;20455;-61